sensor_id;sensor_type;location;lat;lon;timestamp;P1;durP1;ratioP1;P2;durP2;ratioP2
46282;SDS011;32017;43.700;11.820;2023-02-01T00:02:08;50.22;;;33.85;;
46282;SDS011;32017;43.700;11.820;2023-02-01T00:04:29;44.50;;;33.15;;
46282;SDS011;32017;43.700;11.820;2023-02-01T00:06:50;47.63;;;36.25;;
46282;SDS011;32017;43.700;11.820;2023-02-01T00:09:10;49.58;;;37.50;;
46282;SDS011;32017;43.700;11.820;2023-02-01T00:11:30;40.65;;;32.35;;
46282;SDS011;32017;43.700;11.820;2023-02-01T00:13:51;42.15;;;33.40;;
46282;SDS011;32017;43.700;11.820;2023-02-01T00:16:16;43.95;;;33.33;;
46282;SDS011;32017;43.700;11.820;2023-02-01T00:18:37;43.75;;;33.45;;
46282;SDS011;32017;43.700;11.820;2023-02-01T00:20:57;37.45;;;30.70;;
46282;SDS011;32017;43.700;11.820;2023-02-01T00:23:18;34.78;;;30.52;;
46282;SDS011;32017;43.700;11.820;2023-02-01T00:25:38;40.97;;;29.58;;
46282;SDS011;32017;43.700;11.820;2023-02-01T00:27:58;41.78;;;32.35;;
46282;SDS011;32017;43.700;11.820;2023-02-01T00:30:19;42.08;;;32.10;;
46282;SDS011;32017;43.700;11.820;2023-02-01T00:32:40;39.55;;;30.55;;
46282;SDS011;32017;43.700;11.820;2023-02-01T00:35:00;36.83;;;27.70;;
46282;SDS011;32017;43.700;11.820;2023-02-01T00:37:20;43.20;;;30.50;;
46282;SDS011;32017;43.700;11.820;2023-02-01T00:39:42;41.78;;;29.25;;
46282;SDS011;32017;43.700;11.820;2023-02-01T00:42:02;42.97;;;31.63;;
46282;SDS011;32017;43.700;11.820;2023-02-01T00:44:23;39.40;;;29.88;;
46282;SDS011;32017;43.700;11.820;2023-02-01T00:46:43;45.28;;;32.88;;
46282;SDS011;32017;43.700;11.820;2023-02-01T00:49:04;42.75;;;32.30;;
46282;SDS011;32017;43.700;11.820;2023-02-01T00:51:27;38.50;;;29.08;;
46282;SDS011;32017;43.700;11.820;2023-02-01T00:53:47;38.35;;;29.95;;
46282;SDS011;32017;43.700;11.820;2023-02-01T00:56:08;34.65;;;30.30;;
46282;SDS011;32017;43.700;11.820;2023-02-01T00:58:29;37.00;;;30.33;;
46282;SDS011;32017;43.700;11.820;2023-02-01T01:00:49;36.95;;;29.65;;
46282;SDS011;32017;43.700;11.820;2023-02-01T01:03:10;34.97;;;25.50;;
46282;SDS011;32017;43.700;11.820;2023-02-01T01:05:39;40.10;;;29.20;;
46282;SDS011;32017;43.700;11.820;2023-02-01T01:07:59;33.92;;;27.83;;
46282;SDS011;32017;43.700;11.820;2023-02-01T01:10:19;34.67;;;27.17;;
46282;SDS011;32017;43.700;11.820;2023-02-01T01:12:40;38.13;;;29.08;;
46282;SDS011;32017;43.700;11.820;2023-02-01T01:15:01;37.70;;;31.08;;
46282;SDS011;32017;43.700;11.820;2023-02-01T01:17:21;35.28;;;28.27;;
46282;SDS011;32017;43.700;11.820;2023-02-01T01:19:42;29.75;;;26.77;;
46282;SDS011;32017;43.700;11.820;2023-02-01T01:22:02;28.63;;;25.83;;
46282;SDS011;32017;43.700;11.820;2023-02-01T01:24:22;32.00;;;28.60;;
46282;SDS011;32017;43.700;11.820;2023-02-01T01:26:43;36.53;;;28.48;;
46282;SDS011;32017;43.700;11.820;2023-02-01T01:29:04;46.45;;;34.47;;
46282;SDS011;32017;43.700;11.820;2023-02-01T01:31:24;37.67;;;32.58;;
46282;SDS011;32017;43.700;11.820;2023-02-01T01:33:47;40.15;;;30.48;;
46282;SDS011;32017;43.700;11.820;2023-02-01T01:36:08;38.92;;;30.27;;
46282;SDS011;32017;43.700;11.820;2023-02-01T01:38:32;34.78;;;29.45;;
46282;SDS011;32017;43.700;11.820;2023-02-01T01:40:52;39.20;;;29.80;;
46282;SDS011;32017;43.700;11.820;2023-02-01T01:43:14;36.85;;;31.05;;
46282;SDS011;32017;43.700;11.820;2023-02-01T01:45:35;38.22;;;27.23;;
46282;SDS011;32017;43.700;11.820;2023-02-01T01:50:16;34.67;;;28.70;;
46282;SDS011;32017;43.700;11.820;2023-02-01T01:52:37;30.67;;;26.33;;
46282;SDS011;32017;43.700;11.820;2023-02-01T01:54:58;31.95;;;28.08;;
46282;SDS011;32017;43.700;11.820;2023-02-01T01:57:26;30.65;;;27.33;;
46282;SDS011;32017;43.700;11.820;2023-02-01T01:59:48;32.53;;;26.80;;
46282;SDS011;32017;43.700;11.820;2023-02-01T02:02:09;33.67;;;29.92;;
46282;SDS011;32017;43.700;11.820;2023-02-01T02:04:30;31.40;;;28.00;;
46282;SDS011;32017;43.700;11.820;2023-02-01T02:06:54;32.30;;;28.90;;
46282;SDS011;32017;43.700;11.820;2023-02-01T02:09:16;33.40;;;29.70;;
46282;SDS011;32017;43.700;11.820;2023-02-01T02:11:36;35.00;;;29.98;;
46282;SDS011;32017;43.700;11.820;2023-02-01T02:13:56;36.78;;;29.02;;
46282;SDS011;32017;43.700;11.820;2023-02-01T02:16:20;35.47;;;30.92;;
46282;SDS011;32017;43.700;11.820;2023-02-01T02:26:42;33.90;;;29.67;;
46282;SDS011;32017;43.700;11.820;2023-02-01T02:34:07;31.60;;;28.33;;
46282;SDS011;32017;43.700;11.820;2023-02-01T02:36:32;37.05;;;29.48;;
46282;SDS011;32017;43.700;11.820;2023-02-01T02:44:13;41.60;;;32.40;;
46282;SDS011;32017;43.700;11.820;2023-02-01T02:46:54;40.50;;;31.10;;
46282;SDS011;32017;43.700;11.820;2023-02-01T02:49:39;45.83;;;31.30;;
46282;SDS011;32017;43.700;11.820;2023-02-01T02:52:02;43.45;;;31.42;;
46282;SDS011;32017;43.700;11.820;2023-02-01T02:54:45;35.13;;;31.52;;
46282;SDS011;32017;43.700;11.820;2023-02-01T02:57:07;40.08;;;29.00;;
46282;SDS011;32017;43.700;11.820;2023-02-01T02:59:48;33.55;;;29.42;;
46282;SDS011;32017;43.700;11.820;2023-02-01T03:02:27;35.05;;;27.70;;
46282;SDS011;32017;43.700;11.820;2023-02-01T03:05:07;30.83;;;26.85;;
46282;SDS011;32017;43.700;11.820;2023-02-01T03:10:07;30.65;;;26.88;;
46282;SDS011;32017;43.700;11.820;2023-02-01T03:12:32;29.88;;;26.58;;
46282;SDS011;32017;43.700;11.820;2023-02-01T03:15:12;31.48;;;28.23;;
46282;SDS011;32017;43.700;11.820;2023-02-01T03:17:34;27.95;;;24.95;;
46282;SDS011;32017;43.700;11.820;2023-02-01T03:19:55;31.55;;;26.27;;
46282;SDS011;32017;43.700;11.820;2023-02-01T03:22:20;29.52;;;26.40;;
46282;SDS011;32017;43.700;11.820;2023-02-01T03:24:44;24.42;;;22.13;;
46282;SDS011;32017;43.700;11.820;2023-02-01T03:27:19;29.80;;;26.23;;
46282;SDS011;32017;43.700;11.820;2023-02-01T03:29:44;32.22;;;28.73;;
46282;SDS011;32017;43.700;11.820;2023-02-01T03:32:05;29.77;;;26.58;;
46282;SDS011;32017;43.700;11.820;2023-02-01T03:34:25;26.15;;;23.45;;
46282;SDS011;32017;43.700;11.820;2023-02-01T03:36:51;23.77;;;21.60;;
46282;SDS011;32017;43.700;11.820;2023-02-01T03:39:15;24.42;;;22.10;;
46282;SDS011;32017;43.700;11.820;2023-02-01T03:41:56;21.77;;;19.77;;
46282;SDS011;32017;43.700;11.820;2023-02-01T03:46:46;24.02;;;21.60;;
46282;SDS011;32017;43.700;11.820;2023-02-01T03:49:08;23.63;;;21.15;;
46282;SDS011;32017;43.700;11.820;2023-02-01T03:51:30;22.17;;;20.25;;
46282;SDS011;32017;43.700;11.820;2023-02-01T03:53:52;27.67;;;24.63;;
46282;SDS011;32017;43.700;11.820;2023-02-01T03:56:14;26.80;;;23.10;;
46282;SDS011;32017;43.700;11.820;2023-02-01T03:58:34;33.38;;;27.90;;
46282;SDS011;32017;43.700;11.820;2023-02-01T04:00:56;29.67;;;26.60;;
46282;SDS011;32017;43.700;11.820;2023-02-01T04:03:16;29.58;;;25.80;;
46282;SDS011;32017;43.700;11.820;2023-02-01T04:05:36;32.28;;;28.83;;
46282;SDS011;32017;43.700;11.820;2023-02-01T04:07:57;30.27;;;27.27;;
46282;SDS011;32017;43.700;11.820;2023-02-01T04:10:17;32.53;;;28.27;;
46282;SDS011;32017;43.700;11.820;2023-02-01T04:12:39;36.42;;;28.13;;
46282;SDS011;32017;43.700;11.820;2023-02-01T04:14:59;33.83;;;27.67;;
46282;SDS011;32017;43.700;11.820;2023-02-01T04:17:20;33.05;;;28.17;;
46282;SDS011;32017;43.700;11.820;2023-02-01T04:19:40;34.97;;;28.00;;
46282;SDS011;32017;43.700;11.820;2023-02-01T04:22:00;37.17;;;28.70;;
46282;SDS011;32017;43.700;11.820;2023-02-01T04:24:20;31.67;;;27.65;;
46282;SDS011;32017;43.700;11.820;2023-02-01T04:26:40;30.63;;;27.48;;
46282;SDS011;32017;43.700;11.820;2023-02-01T04:29:01;28.52;;;25.73;;
46282;SDS011;32017;43.700;11.820;2023-02-01T04:31:21;30.45;;;27.17;;
46282;SDS011;32017;43.700;11.820;2023-02-01T04:33:45;36.83;;;26.58;;
46282;SDS011;32017;43.700;11.820;2023-02-01T04:36:05;31.73;;;27.10;;
46282;SDS011;32017;43.700;11.820;2023-02-01T04:38:26;31.95;;;28.60;;
46282;SDS011;32017;43.700;11.820;2023-02-01T04:40:48;31.80;;;28.60;;
46282;SDS011;32017;43.700;11.820;2023-02-01T04:43:09;39.05;;;26.65;;
46282;SDS011;32017;43.700;11.820;2023-02-01T04:45:29;31.10;;;27.88;;
46282;SDS011;32017;43.700;11.820;2023-02-01T04:47:50;31.67;;;27.65;;
46282;SDS011;32017;43.700;11.820;2023-02-01T04:50:10;32.47;;;29.38;;
46282;SDS011;32017;43.700;11.820;2023-02-01T04:52:31;31.80;;;28.23;;
46282;SDS011;32017;43.700;11.820;2023-02-01T04:54:51;33.70;;;30.10;;
46282;SDS011;32017;43.700;11.820;2023-02-01T04:57:13;32.97;;;29.13;;
46282;SDS011;32017;43.700;11.820;2023-02-01T04:59:34;33.80;;;30.55;;
46282;SDS011;32017;43.700;11.820;2023-02-01T05:01:55;36.92;;;29.73;;
46282;SDS011;32017;43.700;11.820;2023-02-01T05:04:15;31.67;;;28.58;;
46282;SDS011;32017;43.700;11.820;2023-02-01T05:06:37;29.95;;;26.98;;
46282;SDS011;32017;43.700;11.820;2023-02-01T05:08:57;32.97;;;29.38;;
46282;SDS011;32017;43.700;11.820;2023-02-01T05:11:17;38.92;;;28.10;;
46282;SDS011;32017;43.700;11.820;2023-02-01T05:13:56;39.58;;;31.55;;
46282;SDS011;32017;43.700;11.820;2023-02-01T05:16:17;36.13;;;28.40;;
46282;SDS011;32017;43.700;11.820;2023-02-01T05:18:37;36.40;;;30.83;;
46282;SDS011;32017;43.700;11.820;2023-02-01T05:20:58;34.00;;;28.65;;
46282;SDS011;32017;43.700;11.820;2023-02-01T05:23:18;39.83;;;32.45;;
46282;SDS011;32017;43.700;11.820;2023-02-01T05:25:38;35.75;;;31.50;;
46282;SDS011;32017;43.700;11.820;2023-02-01T05:27:59;37.90;;;29.00;;
46282;SDS011;32017;43.700;11.820;2023-02-01T05:30:19;33.05;;;28.35;;
46282;SDS011;32017;43.700;11.820;2023-02-01T05:32:39;40.03;;;31.35;;
46282;SDS011;32017;43.700;11.820;2023-02-01T05:35:00;43.15;;;33.95;;
46282;SDS011;32017;43.700;11.820;2023-02-01T05:37:20;45.38;;;35.25;;
46282;SDS011;32017;43.700;11.820;2023-02-01T05:39:40;41.00;;;31.08;;
46282;SDS011;32017;43.700;11.820;2023-02-01T05:42:00;39.33;;;33.63;;
46282;SDS011;32017;43.700;11.820;2023-02-01T05:44:21;46.75;;;33.95;;
46282;SDS011;32017;43.700;11.820;2023-02-01T05:46:41;42.95;;;32.78;;
46282;SDS011;32017;43.700;11.820;2023-02-01T05:49:01;53.92;;;37.25;;
46282;SDS011;32017;43.700;11.820;2023-02-01T05:51:21;82.15;;;40.25;;
46282;SDS011;32017;43.700;11.820;2023-02-01T05:53:41;75.55;;;42.08;;
46282;SDS011;32017;43.700;11.820;2023-02-01T05:56:01;76.18;;;38.95;;
46282;SDS011;32017;43.700;11.820;2023-02-01T05:58:22;67.78;;;39.55;;
46282;SDS011;32017;43.700;11.820;2023-02-01T06:00:42;52.30;;;33.92;;
46282;SDS011;32017;43.700;11.820;2023-02-01T06:03:03;54.63;;;36.00;;
46282;SDS011;32017;43.700;11.820;2023-02-01T06:05:23;46.83;;;33.55;;
46282;SDS011;32017;43.700;11.820;2023-02-01T06:07:43;44.40;;;35.00;;
46282;SDS011;32017;43.700;11.820;2023-02-01T06:10:04;37.38;;;32.13;;
46282;SDS011;32017;43.700;11.820;2023-02-01T06:12:24;45.28;;;34.03;;
46282;SDS011;32017;43.700;11.820;2023-02-01T06:14:47;40.97;;;32.73;;
46282;SDS011;32017;43.700;11.820;2023-02-01T06:17:07;41.75;;;36.47;;
46282;SDS011;32017;43.700;11.820;2023-02-01T06:19:27;36.90;;;33.00;;
46282;SDS011;32017;43.700;11.820;2023-02-01T06:21:47;43.30;;;33.25;;
46282;SDS011;32017;43.700;11.820;2023-02-01T06:24:08;36.53;;;31.63;;
46282;SDS011;32017;43.700;11.820;2023-02-01T06:26:29;47.60;;;36.80;;
46282;SDS011;32017;43.700;11.820;2023-02-01T06:28:49;47.78;;;37.25;;
46282;SDS011;32017;43.700;11.820;2023-02-01T06:31:10;45.67;;;33.40;;
46282;SDS011;32017;43.700;11.820;2023-02-01T06:33:31;53.80;;;37.08;;
46282;SDS011;32017;43.700;11.820;2023-02-01T06:35:56;49.92;;;40.70;;
46282;SDS011;32017;43.700;11.820;2023-02-01T06:38:17;51.90;;;37.78;;
46282;SDS011;32017;43.700;11.820;2023-02-01T06:40:38;52.63;;;44.63;;
46282;SDS011;32017;43.700;11.820;2023-02-01T06:42:58;48.78;;;40.63;;
46282;SDS011;32017;43.700;11.820;2023-02-01T06:45:18;62.15;;;55.50;;
46282;SDS011;32017;43.700;11.820;2023-02-01T06:47:38;60.70;;;54.33;;
46282;SDS011;32017;43.700;11.820;2023-02-01T06:49:59;59.72;;;53.53;;
46282;SDS011;32017;43.700;11.820;2023-02-01T06:52:19;62.40;;;55.75;;
46282;SDS011;32017;43.700;11.820;2023-02-01T06:54:39;67.07;;;52.13;;
46282;SDS011;32017;43.700;11.820;2023-02-01T06:57:00;66.70;;;47.70;;
46282;SDS011;32017;43.700;11.820;2023-02-01T06:59:20;49.88;;;38.40;;
46282;SDS011;32017;43.700;11.820;2023-02-01T07:01:40;44.50;;;35.50;;
46282;SDS011;32017;43.700;11.820;2023-02-01T07:04:01;47.63;;;39.28;;
46282;SDS011;32017;43.700;11.820;2023-02-01T07:06:21;51.45;;;38.35;;
46282;SDS011;32017;43.700;11.820;2023-02-01T07:08:41;55.67;;;39.95;;
46282;SDS011;32017;43.700;11.820;2023-02-01T07:11:06;62.38;;;44.30;;
46282;SDS011;32017;43.700;11.820;2023-02-01T07:13:26;39.25;;;34.97;;
46282;SDS011;32017;43.700;11.820;2023-02-01T07:15:46;39.53;;;35.20;;
46282;SDS011;32017;43.700;11.820;2023-02-01T07:18:06;51.05;;;37.42;;
46282;SDS011;32017;43.700;11.820;2023-02-01T07:20:26;47.55;;;37.78;;
46282;SDS011;32017;43.700;11.820;2023-02-01T07:22:47;57.25;;;38.42;;
46282;SDS011;32017;43.700;11.820;2023-02-01T07:25:07;50.45;;;36.97;;
46282;SDS011;32017;43.700;11.820;2023-02-01T07:27:27;52.22;;;40.78;;
46282;SDS011;32017;43.700;11.820;2023-02-01T07:29:47;59.03;;;42.45;;
46282;SDS011;32017;43.700;11.820;2023-02-01T07:32:08;64.95;;;48.63;;
46282;SDS011;32017;43.700;11.820;2023-02-01T07:34:28;51.58;;;43.70;;
46282;SDS011;32017;43.700;11.820;2023-02-01T07:36:50;44.10;;;36.65;;
46282;SDS011;32017;43.700;11.820;2023-02-01T07:39:10;49.25;;;36.75;;
46282;SDS011;32017;43.700;11.820;2023-02-01T07:41:31;41.03;;;35.90;;
46282;SDS011;32017;43.700;11.820;2023-02-01T07:43:54;42.47;;;34.97;;
46282;SDS011;32017;43.700;11.820;2023-02-01T07:46:14;41.55;;;36.05;;
46282;SDS011;32017;43.700;11.820;2023-02-01T07:48:35;40.53;;;30.73;;
46282;SDS011;32017;43.700;11.820;2023-02-01T07:51:05;45.85;;;36.42;;
46282;SDS011;32017;43.700;11.820;2023-02-01T07:53:26;28.88;;;25.83;;
46282;SDS011;32017;43.700;11.820;2023-02-01T07:55:46;34.88;;;30.83;;
46282;SDS011;32017;43.700;11.820;2023-02-01T07:58:07;40.38;;;34.88;;
46282;SDS011;32017;43.700;11.820;2023-02-01T08:00:27;21.42;;;19.48;;
46282;SDS011;32017;43.700;11.820;2023-02-01T08:03:06;36.13;;;31.35;;
46282;SDS011;32017;43.700;11.820;2023-02-01T08:05:26;46.75;;;37.42;;
46282;SDS011;32017;43.700;11.820;2023-02-01T08:07:50;36.75;;;31.00;;
46282;SDS011;32017;43.700;11.820;2023-02-01T08:10:11;33.97;;;28.15;;
46282;SDS011;32017;43.700;11.820;2023-02-01T08:12:32;33.25;;;28.17;;
46282;SDS011;32017;43.700;11.820;2023-02-01T08:14:52;30.77;;;27.58;;
46282;SDS011;32017;43.700;11.820;2023-02-01T08:17:13;34.53;;;30.05;;
46282;SDS011;32017;43.700;11.820;2023-02-01T08:19:33;26.67;;;24.02;;
46282;SDS011;32017;43.700;11.820;2023-02-01T08:21:53;27.83;;;24.85;;
46282;SDS011;32017;43.700;11.820;2023-02-01T08:24:13;27.67;;;21.67;;
46282;SDS011;32017;43.700;11.820;2023-02-01T08:26:34;30.98;;;25.90;;
46282;SDS011;32017;43.700;11.820;2023-02-01T08:28:55;20.30;;;18.52;;
46282;SDS011;32017;43.700;11.820;2023-02-01T08:31:16;21.00;;;19.17;;
46282;SDS011;32017;43.700;11.820;2023-02-01T08:33:37;21.88;;;20.00;;
46282;SDS011;32017;43.700;11.820;2023-02-01T08:36:00;43.50;;;35.03;;
46282;SDS011;32017;43.700;11.820;2023-02-01T08:40:41;28.27;;;25.60;;
46282;SDS011;32017;43.700;11.820;2023-02-01T08:43:01;28.85;;;25.98;;
46282;SDS011;32017;43.700;11.820;2023-02-01T08:45:22;34.75;;;30.20;;
46282;SDS011;32017;43.700;11.820;2023-02-01T08:47:43;32.10;;;28.85;;
46282;SDS011;32017;43.700;11.820;2023-02-01T08:50:04;32.90;;;29.60;;
46282;SDS011;32017;43.700;11.820;2023-02-01T08:52:24;34.03;;;29.20;;
46282;SDS011;32017;43.700;11.820;2023-02-01T08:54:45;35.47;;;31.63;;
46282;SDS011;32017;43.700;11.820;2023-02-01T08:57:05;37.78;;;32.05;;
46282;SDS011;32017;43.700;11.820;2023-02-01T08:59:25;34.38;;;30.75;;
46282;SDS011;32017;43.700;11.820;2023-02-01T09:01:49;32.80;;;29.33;;
46282;SDS011;32017;43.700;11.820;2023-02-01T09:04:09;33.30;;;27.27;;
46282;SDS011;32017;43.700;11.820;2023-02-01T09:06:29;31.98;;;28.98;;
46282;SDS011;32017;43.700;11.820;2023-02-01T09:08:49;35.58;;;31.83;;
46282;SDS011;32017;43.700;11.820;2023-02-01T09:11:11;29.25;;;26.25;;
46282;SDS011;32017;43.700;11.820;2023-02-01T09:13:32;26.38;;;23.58;;
46282;SDS011;32017;43.700;11.820;2023-02-01T09:18:16;34.17;;;26.63;;
46282;SDS011;32017;43.700;11.820;2023-02-01T09:20:36;27.10;;;24.42;;
46282;SDS011;32017;43.700;11.820;2023-02-01T09:22:57;25.85;;;23.33;;
46282;SDS011;32017;43.700;11.820;2023-02-01T09:25:17;27.67;;;24.88;;
46282;SDS011;32017;43.700;11.820;2023-02-01T09:27:38;30.02;;;22.35;;
46282;SDS011;32017;43.700;11.820;2023-02-01T09:29:58;23.15;;;20.80;;
46282;SDS011;32017;43.700;11.820;2023-02-01T09:32:19;24.95;;;22.80;;
46282;SDS011;32017;43.700;11.820;2023-02-01T09:34:40;22.98;;;20.73;;
46282;SDS011;32017;43.700;11.820;2023-02-01T09:37:01;25.27;;;22.88;;
46282;SDS011;32017;43.700;11.820;2023-02-01T09:39:21;29.52;;;26.50;;
46282;SDS011;32017;43.700;11.820;2023-02-01T09:41:59;58.10;;;41.03;;
46282;SDS011;32017;43.700;11.820;2023-02-01T09:44:46;41.13;;;32.90;;
46282;SDS011;32017;43.700;11.820;2023-02-01T09:47:03;32.28;;;29.00;;
46282;SDS011;32017;43.700;11.820;2023-02-01T09:49:26;26.98;;;24.20;;
46282;SDS011;32017;43.700;11.820;2023-02-01T09:51:48;23.38;;;21.10;;
46282;SDS011;32017;43.700;11.820;2023-02-01T09:54:19;22.77;;;20.75;;
46282;SDS011;32017;43.700;11.820;2023-02-01T09:56:44;25.13;;;22.38;;
46282;SDS011;32017;43.700;11.820;2023-02-01T09:59:10;27.42;;;22.33;;
46282;SDS011;32017;43.700;11.820;2023-02-01T10:01:35;26.63;;;23.98;;
46282;SDS011;32017;43.700;11.820;2023-02-01T10:04:06;27.50;;;24.42;;
46282;SDS011;32017;43.700;11.820;2023-02-01T10:14:13;32.17;;;26.23;;
46282;SDS011;32017;43.700;11.820;2023-02-01T10:16:57;32.83;;;24.77;;
46282;SDS011;32017;43.700;11.820;2023-02-01T10:27:01;33.75;;;28.92;;
46282;SDS011;32017;43.700;11.820;2023-02-01T10:29:22;39.75;;;30.45;;
46282;SDS011;32017;43.700;11.820;2023-02-01T10:31:45;36.17;;;30.15;;
46282;SDS011;32017;43.700;11.820;2023-02-01T10:34:13;40.75;;;27.88;;
46282;SDS011;32017;43.700;11.820;2023-02-01T10:36:36;40.42;;;28.55;;
46282;SDS011;32017;43.700;11.820;2023-02-01T10:39:00;31.08;;;27.90;;
46282;SDS011;32017;43.700;11.820;2023-02-01T10:41:21;33.13;;;27.92;;
46282;SDS011;32017;43.700;11.820;2023-02-01T10:43:42;37.05;;;28.75;;
46282;SDS011;32017;43.700;11.820;2023-02-01T10:46:03;27.88;;;22.83;;
46282;SDS011;32017;43.700;11.820;2023-02-01T10:48:24;26.45;;;23.60;;
46282;SDS011;32017;43.700;11.820;2023-02-01T10:50:53;23.02;;;20.75;;
46282;SDS011;32017;43.700;11.820;2023-02-01T10:53:17;19.05;;;16.65;;
46282;SDS011;32017;43.700;11.820;2023-02-01T10:58:04;23.92;;;21.00;;
46282;SDS011;32017;43.700;11.820;2023-02-01T11:00:25;19.83;;;17.88;;
46282;SDS011;32017;43.700;11.820;2023-02-01T11:02:45;28.17;;;18.67;;
46282;SDS011;32017;43.700;11.820;2023-02-01T11:05:09;21.13;;;19.00;;
46282;SDS011;32017;43.700;11.820;2023-02-01T11:07:31;22.63;;;19.85;;
46282;SDS011;32017;43.700;11.820;2023-02-01T11:09:53;26.10;;;21.80;;
46282;SDS011;32017;43.700;11.820;2023-02-01T11:14:44;21.58;;;18.50;;
46282;SDS011;32017;43.700;11.820;2023-02-01T11:19:28;32.30;;;25.00;;
46282;SDS011;32017;43.700;11.820;2023-02-01T11:21:55;30.15;;;24.70;;
46282;SDS011;32017;43.700;11.820;2023-02-01T11:24:25;28.88;;;25.25;;
46282;SDS011;32017;43.700;11.820;2023-02-01T11:26:46;23.42;;;16.80;;
46282;SDS011;32017;43.700;11.820;2023-02-01T11:29:10;15.20;;;13.93;;
46282;SDS011;32017;43.700;11.820;2023-02-01T11:31:32;13.30;;;12.45;;
46282;SDS011;32017;43.700;11.820;2023-02-01T11:33:55;16.60;;;14.98;;
46282;SDS011;32017;43.700;11.820;2023-02-01T11:36:18;16.10;;;12.82;;
46282;SDS011;32017;43.700;11.820;2023-02-01T11:38:51;14.40;;;12.98;;
46282;SDS011;32017;43.700;11.820;2023-02-01T11:43:32;21.13;;;15.75;;
46282;SDS011;32017;43.700;11.820;2023-02-01T11:45:53;15.70;;;14.20;;
46282;SDS011;32017;43.700;11.820;2023-02-01T11:48:15;17.13;;;14.40;;
46282;SDS011;32017;43.700;11.820;2023-02-01T11:55:38;19.33;;;16.88;;
46282;SDS011;32017;43.700;11.820;2023-02-01T12:05:41;14.18;;;12.88;;
46282;SDS011;32017;43.700;11.820;2023-02-01T12:38:45;16.45;;;12.82;;
46282;SDS011;32017;43.700;11.820;2023-02-01T12:43:47;44.88;;;24.83;;
46282;SDS011;32017;43.700;11.820;2023-02-01T12:46:16;14.05;;;10.15;;
46282;SDS011;32017;43.700;11.820;2023-02-01T12:48:42;14.05;;;12.85;;
46282;SDS011;32017;43.700;11.820;2023-02-01T12:51:12;14.45;;;13.18;;
46282;SDS011;32017;43.700;11.820;2023-02-01T12:56:03;16.73;;;14.07;;
46282;SDS011;32017;43.700;11.820;2023-02-01T12:58:27;15.43;;;13.88;;
46282;SDS011;32017;43.700;11.820;2023-02-01T13:01:02;16.75;;;15.00;;
46282;SDS011;32017;43.700;11.820;2023-02-01T13:08:08;30.58;;;14.85;;
46282;SDS011;32017;43.700;11.820;2023-02-01T13:13:04;17.88;;;16.23;;
46282;SDS011;32017;43.700;11.820;2023-02-01T13:15:33;13.07;;;12.07;;
46282;SDS011;32017;43.700;11.820;2023-02-01T13:17:59;13.55;;;12.45;;
46282;SDS011;32017;43.700;11.820;2023-02-01T13:23:01;13.15;;;12.13;;
46282;SDS011;32017;43.700;11.820;2023-02-01T13:25:31;11.20;;;10.20;;
46282;SDS011;32017;43.700;11.820;2023-02-01T13:27:54;13.85;;;12.70;;
46282;SDS011;32017;43.700;11.820;2023-02-01T13:30:20;12.50;;;11.43;;
46282;SDS011;32017;43.700;11.820;2023-02-01T13:32:48;12.93;;;11.60;;
46282;SDS011;32017;43.700;11.820;2023-02-01T13:40:45;19.08;;;12.27;;
46282;SDS011;32017;43.700;11.820;2023-02-01T13:43:23;12.93;;;11.57;;
46282;SDS011;32017;43.700;11.820;2023-02-01T13:45:49;10.82;;;9.82;;
46282;SDS011;32017;43.700;11.820;2023-02-01T13:48:18;19.55;;;12.02;;
46282;SDS011;32017;43.700;11.820;2023-02-01T13:50:39;10.40;;;8.93;;
46282;SDS011;32017;43.700;11.820;2023-02-01T13:53:03;13.45;;;12.30;;
46282;SDS011;32017;43.700;11.820;2023-02-01T13:57:45;12.45;;;11.38;;
46282;SDS011;32017;43.700;11.820;2023-02-01T14:00:48;11.85;;;10.68;;
46282;SDS011;32017;43.700;11.820;2023-02-01T14:13:11;16.02;;;10.98;;
46282;SDS011;32017;43.700;11.820;2023-02-01T14:15:32;19.52;;;11.85;;
46282;SDS011;32017;43.700;11.820;2023-02-01T14:17:53;10.85;;;10.00;;
46282;SDS011;32017;43.700;11.820;2023-02-01T14:23:00;19.40;;;14.10;;
46282;SDS011;32017;43.700;11.820;2023-02-01T14:25:20;13.50;;;10.80;;
46282;SDS011;32017;43.700;11.820;2023-02-01T14:27:41;12.05;;;10.85;;
46282;SDS011;32017;43.700;11.820;2023-02-01T14:30:04;13.25;;;10.88;;
46282;SDS011;32017;43.700;11.820;2023-02-01T14:32:36;18.80;;;10.18;;
46282;SDS011;32017;43.700;11.820;2023-02-01T14:34:58;21.25;;;11.32;;
46282;SDS011;32017;43.700;11.820;2023-02-01T14:42:05;14.13;;;10.85;;
46282;SDS011;32017;43.700;11.820;2023-02-01T14:44:33;11.68;;;10.85;;
46282;SDS011;32017;43.700;11.820;2023-02-01T14:49:24;16.02;;;12.52;;
46282;SDS011;32017;43.700;11.820;2023-02-01T14:51:48;11.85;;;10.75;;
46282;SDS011;32017;43.700;11.820;2023-02-01T14:54:08;9.55;;;8.65;;
46282;SDS011;32017;43.700;11.820;2023-02-01T14:56:32;9.70;;;8.77;;
46282;SDS011;32017;43.700;11.820;2023-02-01T15:01:29;11.50;;;10.40;;
46282;SDS011;32017;43.700;11.820;2023-02-01T15:08:57;17.40;;;14.63;;
46282;SDS011;32017;43.700;11.820;2023-02-01T15:11:18;25.37;;;16.97;;
46282;SDS011;32017;43.700;11.820;2023-02-01T15:13:38;40.58;;;27.23;;
46282;SDS011;32017;43.700;11.820;2023-02-01T15:15:59;28.05;;;18.52;;
46282;SDS011;32017;43.700;11.820;2023-02-01T15:18:19;23.35;;;18.73;;
46282;SDS011;32017;43.700;11.820;2023-02-01T15:20:41;20.52;;;16.10;;
46282;SDS011;32017;43.700;11.820;2023-02-01T15:23:21;26.98;;;19.42;;
46282;SDS011;32017;43.700;11.820;2023-02-01T15:25:44;33.45;;;23.75;;
46282;SDS011;32017;43.700;11.820;2023-02-01T15:28:05;32.45;;;20.17;;
46282;SDS011;32017;43.700;11.820;2023-02-01T15:30:31;21.70;;;19.73;;
46282;SDS011;32017;43.700;11.820;2023-02-01T15:32:52;39.38;;;26.40;;
46282;SDS011;32017;43.700;11.820;2023-02-01T15:35:36;41.25;;;26.50;;
46282;SDS011;32017;43.700;11.820;2023-02-01T15:40:37;96.15;;;57.22;;
46282;SDS011;32017;43.700;11.820;2023-02-01T15:42:57;120.95;;;71.35;;
46282;SDS011;32017;43.700;11.820;2023-02-01T15:45:18;59.88;;;36.67;;
46282;SDS011;32017;43.700;11.820;2023-02-01T15:47:40;48.10;;;31.20;;
46282;SDS011;32017;43.700;11.820;2023-02-01T15:50:05;59.28;;;35.75;;
46282;SDS011;32017;43.700;11.820;2023-02-01T15:55:17;32.67;;;25.35;;
46282;SDS011;32017;43.700;11.820;2023-02-01T15:57:38;67.53;;;39.25;;
46282;SDS011;32017;43.700;11.820;2023-02-01T16:00:00;36.05;;;24.42;;
46282;SDS011;32017;43.700;11.820;2023-02-01T16:04:46;31.58;;;21.52;;
46282;SDS011;32017;43.700;11.820;2023-02-01T16:07:26;31.50;;;21.65;;
46282;SDS011;32017;43.700;11.820;2023-02-01T16:09:52;30.38;;;18.77;;
46282;SDS011;32017;43.700;11.820;2023-02-01T16:12:22;31.58;;;21.10;;
46282;SDS011;32017;43.700;11.820;2023-02-01T16:14:43;24.38;;;19.08;;
46282;SDS011;32017;43.700;11.820;2023-02-01T16:17:03;34.25;;;21.35;;
46282;SDS011;32017;43.700;11.820;2023-02-01T16:19:24;28.35;;;19.00;;
46282;SDS011;32017;43.700;11.820;2023-02-01T16:24:07;24.08;;;14.15;;